sensor_id;sensor_type;location;lat;lon;timestamp;P1;durP1;ratioP1;P2;durP2;ratioP2
2710;SDS011;20721;47.402;8.550;2024-03-22T00:00:46;6.72;;;6.72;;
2710;SDS011;20721;47.402;8.550;2024-03-22T00:02:46;6.23;;;6.23;;
2710;SDS011;20721;47.402;8.550;2024-03-22T00:05:46;6.22;;;6.22;;
2710;SDS011;20721;47.402;8.550;2024-03-22T00:07:47;5.49;;;5.49;;
2710;SDS011;20721;47.402;8.550;2024-03-22T00:09:46;6.23;;;6.23;;
2710;SDS011;20721;47.402;8.550;2024-03-22T00:11:46;6.06;;;6.06;;
2710;SDS011;20721;47.402;8.550;2024-03-22T00:13:46;5.85;;;5.85;;
2710;SDS011;20721;47.402;8.550;2024-03-22T00:15:47;5.88;;;5.88;;
2710;SDS011;20721;47.402;8.550;2024-03-22T00:17:46;5.84;;;5.84;;
2710;SDS011;20721;47.402;8.550;2024-03-22T00:19:46;6.43;;;6.43;;
2710;SDS011;20721;47.402;8.550;2024-03-22T00:21:46;6.64;;;6.64;;
2710;SDS011;20721;47.402;8.550;2024-03-22T00:23:46;5.43;;;5.43;;
2710;SDS011;20721;47.402;8.550;2024-03-22T00:25:46;6.31;;;6.31;;
2710;SDS011;20721;47.402;8.550;2024-03-22T00:27:46;6.10;;;6.10;;
2710;SDS011;20721;47.402;8.550;2024-03-22T00:29:46;5.83;;;5.83;;
2710;SDS011;20721;47.402;8.550;2024-03-22T00:31:46;6.33;;;6.33;;
2710;SDS011;20721;47.402;8.550;2024-03-22T00:33:46;6.57;;;6.57;;
2710;SDS011;20721;47.402;8.550;2024-03-22T00:35:47;6.05;;;6.05;;
2710;SDS011;20721;47.402;8.550;2024-03-22T00:38:46;6.36;;;6.36;;
2710;SDS011;20721;47.402;8.550;2024-03-22T00:40:46;5.91;;;5.91;;
2710;SDS011;20721;47.402;8.550;2024-03-22T00:42:46;6.01;;;6.01;;
2710;SDS011;20721;47.402;8.550;2024-03-22T00:45:46;5.78;;;5.78;;
2710;SDS011;20721;47.402;8.550;2024-03-22T00:47:46;6.35;;;6.35;;
2710;SDS011;20721;47.402;8.550;2024-03-22T00:49:46;6.36;;;6.36;;
2710;SDS011;20721;47.402;8.550;2024-03-22T00:51:46;5.41;;;5.41;;
2710;SDS011;20721;47.402;8.550;2024-03-22T00:53:46;5.45;;;5.45;;
2710;SDS011;20721;47.402;8.550;2024-03-22T00:55:46;5.97;;;5.97;;
2710;SDS011;20721;47.402;8.550;2024-03-22T00:57:46;5.36;;;5.36;;
2710;SDS011;20721;47.402;8.550;2024-03-22T01:00:48;5.44;;;5.44;;
2710;SDS011;20721;47.402;8.550;2024-03-22T01:02:46;6.02;;;6.02;;
2710;SDS011;20721;47.402;8.550;2024-03-22T01:04:46;5.68;;;5.68;;
2710;SDS011;20721;47.402;8.550;2024-03-22T01:06:46;5.79;;;5.79;;
2710;SDS011;20721;47.402;8.550;2024-03-22T01:08:46;5.60;;;5.60;;
2710;SDS011;20721;47.402;8.550;2024-03-22T01:10:46;6.29;;;6.29;;
2710;SDS011;20721;47.402;8.550;2024-03-22T01:13:46;6.44;;;6.44;;
2710;SDS011;20721;47.402;8.550;2024-03-22T01:15:46;6.89;;;6.89;;
2710;SDS011;20721;47.402;8.550;2024-03-22T01:17:46;5.65;;;5.65;;
2710;SDS011;20721;47.402;8.550;2024-03-22T01:19:46;6.07;;;6.07;;
2710;SDS011;20721;47.402;8.550;2024-03-22T01:22:47;5.93;;;5.93;;
2710;SDS011;20721;47.402;8.550;2024-03-22T01:24:46;5.53;;;5.53;;
2710;SDS011;20721;47.402;8.550;2024-03-22T01:26:46;5.81;;;5.81;;
2710;SDS011;20721;47.402;8.550;2024-03-22T01:29:46;5.83;;;5.83;;
2710;SDS011;20721;47.402;8.550;2024-03-22T01:31:46;5.73;;;5.73;;
2710;SDS011;20721;47.402;8.550;2024-03-22T01:34:46;5.33;;;5.33;;
2710;SDS011;20721;47.402;8.550;2024-03-22T01:36:46;5.60;;;5.60;;
2710;SDS011;20721;47.402;8.550;2024-03-22T01:38:46;5.60;;;5.60;;
2710;SDS011;20721;47.402;8.550;2024-03-22T01:40:46;5.74;;;5.74;;
2710;SDS011;20721;47.402;8.550;2024-03-22T01:42:46;6.01;;;6.01;;
2710;SDS011;20721;47.402;8.550;2024-03-22T01:44:48;5.56;;;5.56;;
2710;SDS011;20721;47.402;8.550;2024-03-22T01:46:46;6.34;;;6.34;;
2710;SDS011;20721;47.402;8.550;2024-03-22T01:48:46;6.26;;;6.26;;
2710;SDS011;20721;47.402;8.550;2024-03-22T01:51:46;5.49;;;5.49;;
2710;SDS011;20721;47.402;8.550;2024-03-22T01:53:47;6.11;;;6.11;;
2710;SDS011;20721;47.402;8.550;2024-03-22T01:57:49;6.01;;;6.01;;
2710;SDS011;20721;47.402;8.550;2024-03-22T01:59:46;5.69;;;5.69;;
2710;SDS011;20721;47.402;8.550;2024-03-22T02:01:46;6.15;;;6.15;;
2710;SDS011;20721;47.402;8.550;2024-03-22T02:03:46;5.61;;;5.61;;
2710;SDS011;20721;47.402;8.550;2024-03-22T02:05:46;5.95;;;5.95;;
2710;SDS011;20721;47.402;8.550;2024-03-22T02:07:46;5.44;;;5.44;;
2710;SDS011;20721;47.402;8.550;2024-03-22T02:09:47;5.57;;;5.57;;
2710;SDS011;20721;47.402;8.550;2024-03-22T02:12:47;5.38;;;5.38;;
2710;SDS011;20721;47.402;8.550;2024-03-22T02:14:46;5.56;;;5.56;;
2710;SDS011;20721;47.402;8.550;2024-03-22T02:16:46;5.68;;;5.68;;
2710;SDS011;20721;47.402;8.550;2024-03-22T02:18:46;5.79;;;5.79;;
2710;SDS011;20721;47.402;8.550;2024-03-22T02:22:46;5.90;;;5.90;;
2710;SDS011;20721;47.402;8.550;2024-03-22T02:24:46;5.51;;;5.51;;
2710;SDS011;20721;47.402;8.550;2024-03-22T02:26:46;6.16;;;6.16;;
2710;SDS011;20721;47.402;8.550;2024-03-22T02:28:46;5.17;;;5.17;;
2710;SDS011;20721;47.402;8.550;2024-03-22T02:30:46;6.64;;;6.64;;
2710;SDS011;20721;47.402;8.550;2024-03-22T02:32:47;5.33;;;5.33;;
2710;SDS011;20721;47.402;8.550;2024-03-22T02:35:47;5.58;;;5.58;;
2710;SDS011;20721;47.402;8.550;2024-03-22T02:38:46;5.76;;;5.76;;
2710;SDS011;20721;47.402;8.550;2024-03-22T02:42:46;6.14;;;6.14;;
2710;SDS011;20721;47.402;8.550;2024-03-22T02:45:47;5.99;;;5.99;;
2710;SDS011;20721;47.402;8.550;2024-03-22T02:47:46;5.38;;;5.38;;
2710;SDS011;20721;47.402;8.550;2024-03-22T02:49:47;5.76;;;5.76;;
2710;SDS011;20721;47.402;8.550;2024-03-22T02:51:46;5.63;;;5.63;;
2710;SDS011;20721;47.402;8.550;2024-03-22T02:53:47;5.33;;;5.33;;
2710;SDS011;20721;47.402;8.550;2024-03-22T02:55:47;5.42;;;5.42;;
2710;SDS011;20721;47.402;8.550;2024-03-22T02:57:46;4.73;;;4.73;;
2710;SDS011;20721;47.402;8.550;2024-03-22T02:59:46;5.78;;;5.78;;
2710;SDS011;20721;47.402;8.550;2024-03-22T03:01:46;5.02;;;5.02;;
2710;SDS011;20721;47.402;8.550;2024-03-22T03:04:46;5.24;;;5.24;;
2710;SDS011;20721;47.402;8.550;2024-03-22T03:06:46;4.77;;;4.77;;
2710;SDS011;20721;47.402;8.550;2024-03-22T03:09:46;5.69;;;5.69;;
2710;SDS011;20721;47.402;8.550;2024-03-22T03:12:46;5.60;;;5.60;;
2710;SDS011;20721;47.402;8.550;2024-03-22T03:14:46;4.72;;;4.72;;
2710;SDS011;20721;47.402;8.550;2024-03-22T03:17:46;5.18;;;5.18;;
2710;SDS011;20721;47.402;8.550;2024-03-22T03:19:47;5.55;;;5.55;;
2710;SDS011;20721;47.402;8.550;2024-03-22T03:21:46;4.72;;;4.72;;
2710;SDS011;20721;47.402;8.550;2024-03-22T03:23:46;5.39;;;5.39;;
2710;SDS011;20721;47.402;8.550;2024-03-22T03:25:46;5.16;;;5.16;;
2710;SDS011;20721;47.402;8.550;2024-03-22T03:27:46;5.40;;;5.40;;
2710;SDS011;20721;47.402;8.550;2024-03-22T03:29:47;5.49;;;5.49;;
2710;SDS011;20721;47.402;8.550;2024-03-22T03:31:46;5.51;;;5.51;;
2710;SDS011;20721;47.402;8.550;2024-03-22T03:33:46;6.26;;;6.26;;
2710;SDS011;20721;47.402;8.550;2024-03-22T03:35:46;4.65;;;4.65;;
2710;SDS011;20721;47.402;8.550;2024-03-22T03:37:46;5.16;;;5.16;;
2710;SDS011;20721;47.402;8.550;2024-03-22T03:39:46;6.20;;;6.20;;
2710;SDS011;20721;47.402;8.550;2024-03-22T03:41:46;6.01;;;6.01;;
2710;SDS011;20721;47.402;8.550;2024-03-22T03:43:46;5.62;;;5.62;;
2710;SDS011;20721;47.402;8.550;2024-03-22T03:45:47;5.69;;;5.69;;
2710;SDS011;20721;47.402;8.550;2024-03-22T03:47:46;5.21;;;5.21;;
2710;SDS011;20721;47.402;8.550;2024-03-22T03:49:46;5.39;;;5.39;;
2710;SDS011;20721;47.402;8.550;2024-03-22T03:51:46;5.34;;;5.34;;
2710;SDS011;20721;47.402;8.550;2024-03-22T03:54:46;6.26;;;6.26;;
2710;SDS011;20721;47.402;8.550;2024-03-22T04:00:46;5.80;;;5.80;;
2710;SDS011;20721;47.402;8.550;2024-03-22T04:02:48;5.75;;;5.75;;
2710;SDS011;20721;47.402;8.550;2024-03-22T04:04:46;5.38;;;5.38;;
2710;SDS011;20721;47.402;8.550;2024-03-22T04:06:46;5.78;;;5.78;;
2710;SDS011;20721;47.402;8.550;2024-03-22T04:08:46;5.42;;;5.42;;
2710;SDS011;20721;47.402;8.550;2024-03-22T04:11:47;5.57;;;5.57;;
2710;SDS011;20721;47.402;8.550;2024-03-22T04:13:46;5.40;;;5.40;;
2710;SDS011;20721;47.402;8.550;2024-03-22T04:15:46;6.26;;;6.26;;
2710;SDS011;20721;47.402;8.550;2024-03-22T04:17:46;5.72;;;5.72;;
2710;SDS011;20721;47.402;8.550;2024-03-22T04:19:49;5.74;;;5.74;;
2710;SDS011;20721;47.402;8.550;2024-03-22T04:22:47;5.93;;;5.93;;
2710;SDS011;20721;47.402;8.550;2024-03-22T04:26:46;5.63;;;5.63;;
2710;SDS011;20721;47.402;8.550;2024-03-22T04:29:47;5.46;;;5.46;;
2710;SDS011;20721;47.402;8.550;2024-03-22T04:31:46;5.32;;;5.32;;
2710;SDS011;20721;47.402;8.550;2024-03-22T04:34:47;5.30;;;5.30;;
2710;SDS011;20721;47.402;8.550;2024-03-22T04:36:46;5.77;;;5.77;;
2710;SDS011;20721;47.402;8.550;2024-03-22T04:41:46;5.25;;;5.25;;
2710;SDS011;20721;47.402;8.550;2024-03-22T04:43:47;6.33;;;6.33;;
2710;SDS011;20721;47.402;8.550;2024-03-22T04:45:47;5.78;;;5.78;;
2710;SDS011;20721;47.402;8.550;2024-03-22T04:47:47;5.60;;;5.60;;
2710;SDS011;20721;47.402;8.550;2024-03-22T04:51:47;5.49;;;5.49;;
2710;SDS011;20721;47.402;8.550;2024-03-22T04:53:47;5.64;;;5.64;;
2710;SDS011;20721;47.402;8.550;2024-03-22T04:55:48;5.84;;;5.84;;
2710;SDS011;20721;47.402;8.550;2024-03-22T04:57:47;6.32;;;6.32;;
2710;SDS011;20721;47.402;8.550;2024-03-22T04:59:47;5.83;;;5.83;;
2710;SDS011;20721;47.402;8.550;2024-03-22T05:01:46;6.16;;;6.16;;
2710;SDS011;20721;47.402;8.550;2024-03-22T05:03:46;6.31;;;6.31;;
2710;SDS011;20721;47.402;8.550;2024-03-22T05:06:46;5.68;;;5.68;;
2710;SDS011;20721;47.402;8.550;2024-03-22T05:08:46;5.56;;;5.56;;
2710;SDS011;20721;47.402;8.550;2024-03-22T05:11:47;5.72;;;5.72;;
2710;SDS011;20721;47.402;8.550;2024-03-22T05:13:47;7.02;;;7.02;;
2710;SDS011;20721;47.402;8.550;2024-03-22T05:15:47;6.40;;;6.40;;
2710;SDS011;20721;47.402;8.550;2024-03-22T05:17:47;5.89;;;5.89;;
2710;SDS011;20721;47.402;8.550;2024-03-22T05:19:47;6.23;;;6.23;;
2710;SDS011;20721;47.402;8.550;2024-03-22T05:21:47;6.01;;;6.01;;
2710;SDS011;20721;47.402;8.550;2024-03-22T05:23:47;5.76;;;5.76;;
2710;SDS011;20721;47.402;8.550;2024-03-22T05:25:47;6.80;;;6.80;;
2710;SDS011;20721;47.402;8.550;2024-03-22T05:27:47;5.45;;;5.45;;
2710;SDS011;20721;47.402;8.550;2024-03-22T05:29:47;5.91;;;5.91;;
2710;SDS011;20721;47.402;8.550;2024-03-22T05:31:56;5.70;;;5.70;;
2710;SDS011;20721;47.402;8.550;2024-03-22T05:33:48;6.27;;;6.27;;
2710;SDS011;20721;47.402;8.550;2024-03-22T05:35:47;6.51;;;6.51;;
2710;SDS011;20721;47.402;8.550;2024-03-22T05:37:47;6.59;;;6.59;;
2710;SDS011;20721;47.402;8.550;2024-03-22T05:39:47;7.05;;;7.05;;
2710;SDS011;20721;47.402;8.550;2024-03-22T05:41:47;7.20;;;7.20;;
2710;SDS011;20721;47.402;8.550;2024-03-22T05:43:47;6.99;;;6.99;;
2710;SDS011;20721;47.402;8.550;2024-03-22T05:45:47;7.57;;;7.57;;
2710;SDS011;20721;47.402;8.550;2024-03-22T05:47:49;6.87;;;6.87;;
2710;SDS011;20721;47.402;8.550;2024-03-22T05:50:47;6.75;;;6.75;;
2710;SDS011;20721;47.402;8.550;2024-03-22T05:52:47;5.69;;;5.69;;
2710;SDS011;20721;47.402;8.550;2024-03-22T05:54:47;7.08;;;7.08;;
2710;SDS011;20721;47.402;8.550;2024-03-22T05:56:47;6.14;;;6.14;;
2710;SDS011;20721;47.402;8.550;2024-03-22T05:58:47;5.46;;;5.46;;
2710;SDS011;20721;47.402;8.550;2024-03-22T06:00:47;6.21;;;6.21;;
2710;SDS011;20721;47.402;8.550;2024-03-22T06:03:47;7.08;;;7.08;;
2710;SDS011;20721;47.402;8.550;2024-03-22T06:06:48;7.63;;;7.63;;
2710;SDS011;20721;47.402;8.550;2024-03-22T06:08:49;6.24;;;6.24;;
2710;SDS011;20721;47.402;8.550;2024-03-22T06:10:47;6.71;;;6.71;;
2710;SDS011;20721;47.402;8.550;2024-03-22T06:13:47;6.58;;;6.58;;
2710;SDS011;20721;47.402;8.550;2024-03-22T06:16:47;6.25;;;6.25;;
2710;SDS011;20721;47.402;8.550;2024-03-22T06:18:47;6.31;;;6.31;;
2710;SDS011;20721;47.402;8.550;2024-03-22T06:20:47;6.42;;;6.42;;
2710;SDS011;20721;47.402;8.550;2024-03-22T06:22:47;7.41;;;7.41;;
2710;SDS011;20721;47.402;8.550;2024-03-22T06:24:47;7.15;;;7.15;;
2710;SDS011;20721;47.402;8.550;2024-03-22T06:26:55;7.18;;;7.18;;
2710;SDS011;20721;47.402;8.550;2024-03-22T06:28:47;5.78;;;5.78;;
2710;SDS011;20721;47.402;8.550;2024-03-22T06:30:47;6.64;;;6.64;;
2710;SDS011;20721;47.402;8.550;2024-03-22T06:32:48;6.34;;;6.34;;
2710;SDS011;20721;47.402;8.550;2024-03-22T06:34:47;6.80;;;6.80;;
2710;SDS011;20721;47.402;8.550;2024-03-22T06:36:47;6.99;;;6.99;;
2710;SDS011;20721;47.402;8.550;2024-03-22T06:38:48;7.27;;;7.27;;
2710;SDS011;20721;47.402;8.550;2024-03-22T06:40:47;7.40;;;7.40;;
2710;SDS011;20721;47.402;8.550;2024-03-22T06:42:47;7.21;;;7.21;;
2710;SDS011;20721;47.402;8.550;2024-03-22T06:44:47;7.27;;;7.27;;
2710;SDS011;20721;47.402;8.550;2024-03-22T06:46:47;7.08;;;7.08;;
2710;SDS011;20721;47.402;8.550;2024-03-22T06:48:47;6.69;;;6.69;;
2710;SDS011;20721;47.402;8.550;2024-03-22T06:50:47;7.13;;;7.13;;
2710;SDS011;20721;47.402;8.550;2024-03-22T06:52:47;6.56;;;6.56;;
2710;SDS011;20721;47.402;8.550;2024-03-22T06:54:47;6.72;;;6.72;;
2710;SDS011;20721;47.402;8.550;2024-03-22T06:56:47;6.44;;;6.44;;
2710;SDS011;20721;47.402;8.550;2024-03-22T06:58:48;6.57;;;6.57;;
2710;SDS011;20721;47.402;8.550;2024-03-22T07:00:47;7.40;;;7.40;;
2710;SDS011;20721;47.402;8.550;2024-03-22T07:02:47;8.42;;;8.42;;
2710;SDS011;20721;47.402;8.550;2024-03-22T07:04:47;7.09;;;7.09;;
2710;SDS011;20721;47.402;8.550;2024-03-22T07:06:47;6.33;;;6.33;;
2710;SDS011;20721;47.402;8.550;2024-03-22T07:09:47;6.79;;;6.79;;
2710;SDS011;20721;47.402;8.550;2024-03-22T07:11:47;7.24;;;7.24;;
2710;SDS011;20721;47.402;8.550;2024-03-22T07:13:47;7.37;;;7.37;;
2710;SDS011;20721;47.402;8.550;2024-03-22T07:15:47;7.32;;;7.32;;
2710;SDS011;20721;47.402;8.550;2024-03-22T07:17:47;8.01;;;8.01;;
2710;SDS011;20721;47.402;8.550;2024-03-22T07:19:47;6.03;;;6.03;;
2710;SDS011;20721;47.402;8.550;2024-03-22T07:21:48;5.94;;;5.94;;
2710;SDS011;20721;47.402;8.550;2024-03-22T07:23:47;5.83;;;5.83;;
2710;SDS011;20721;47.402;8.550;2024-03-22T07:25:47;5.86;;;5.86;;
2710;SDS011;20721;47.402;8.550;2024-03-22T07:27:47;4.93;;;4.93;;
2710;SDS011;20721;47.402;8.550;2024-03-22T07:29:47;5.40;;;5.40;;
2710;SDS011;20721;47.402;8.550;2024-03-22T07:31:48;5.87;;;5.87;;
2710;SDS011;20721;47.402;8.550;2024-03-22T07:33:49;7.36;;;7.36;;
2710;SDS011;20721;47.402;8.550;2024-03-22T07:35:48;6.63;;;6.63;;
2710;SDS011;20721;47.402;8.550;2024-03-22T07:37:47;6.17;;;6.17;;
2710;SDS011;20721;47.402;8.550;2024-03-22T07:39:47;5.39;;;5.39;;
2710;SDS011;20721;47.402;8.550;2024-03-22T07:41:47;5.23;;;5.23;;
2710;SDS011;20721;47.402;8.550;2024-03-22T07:43:47;4.51;;;4.51;;
2710;SDS011;20721;47.402;8.550;2024-03-22T07:45:48;4.77;;;4.77;;
2710;SDS011;20721;47.402;8.550;2024-03-22T07:47:48;4.49;;;4.49;;
2710;SDS011;20721;47.402;8.550;2024-03-22T07:49:47;5.37;;;5.37;;
2710;SDS011;20721;47.402;8.550;2024-03-22T07:51:47;4.55;;;4.55;;
2710;SDS011;20721;47.402;8.550;2024-03-22T07:53:47;4.61;;;4.61;;
2710;SDS011;20721;47.402;8.550;2024-03-22T07:55:47;4.85;;;4.85;;
2710;SDS011;20721;47.402;8.550;2024-03-22T07:57:47;4.84;;;4.84;;
2710;SDS011;20721;47.402;8.550;2024-03-22T07:59:47;4.31;;;4.31;;
2710;SDS011;20721;47.402;8.550;2024-03-22T08:02:47;4.51;;;4.51;;
2710;SDS011;20721;47.402;8.550;2024-03-22T08:04:47;4.78;;;4.78;;
2710;SDS011;20721;47.402;8.550;2024-03-22T08:06:47;4.26;;;4.26;;
2710;SDS011;20721;47.402;8.550;2024-03-22T08:08:47;4.08;;;4.08;;
2710;SDS011;20721;47.402;8.550;2024-03-22T08:10:47;4.86;;;4.86;;
2710;SDS011;20721;47.402;8.550;2024-03-22T08:12:47;5.12;;;5.12;;
2710;SDS011;20721;47.402;8.550;2024-03-22T08:14:47;4.79;;;4.79;;
2710;SDS011;20721;47.402;8.550;2024-03-22T08:16:47;4.50;;;4.50;;
2710;SDS011;20721;47.402;8.550;2024-03-22T08:18:47;4.66;;;4.66;;
2710;SDS011;20721;47.402;8.550;2024-03-22T08:20:49;4.76;;;4.76;;
2710;SDS011;20721;47.402;8.550;2024-03-22T08:22:47;6.41;;;6.41;;
2710;SDS011;20721;47.402;8.550;2024-03-22T08:24:47;8.18;;;8.18;;
2710;SDS011;20721;47.402;8.550;2024-03-22T08:26:47;6.74;;;6.74;;
2710;SDS011;20721;47.402;8.550;2024-03-22T08:28:52;4.54;;;4.54;;
2710;SDS011;20721;47.402;8.550;2024-03-22T08:30:47;4.99;;;4.99;;
2710;SDS011;20721;47.402;8.550;2024-03-22T08:32:47;4.45;;;4.45;;
2710;SDS011;20721;47.402;8.550;2024-03-22T08:34:47;4.31;;;4.31;;
2710;SDS011;20721;47.402;8.550;2024-03-22T08:36:47;4.29;;;4.29;;
2710;SDS011;20721;47.402;8.550;2024-03-22T08:38:47;4.76;;;4.76;;
2710;SDS011;20721;47.402;8.550;2024-03-22T08:40:47;4.59;;;4.59;;
2710;SDS011;20721;47.402;8.550;2024-03-22T08:42:47;4.43;;;4.43;;
2710;SDS011;20721;47.402;8.550;2024-03-22T08:44:47;3.87;;;3.87;;
2710;SDS011;20721;47.402;8.550;2024-03-22T08:46:47;4.27;;;4.27;;
2710;SDS011;20721;47.402;8.550;2024-03-22T08:48:47;3.85;;;3.85;;
2710;SDS011;20721;47.402;8.550;2024-03-22T08:50:47;3.70;;;3.70;;
2710;SDS011;20721;47.402;8.550;2024-03-22T08:52:48;3.93;;;3.93;;
2710;SDS011;20721;47.402;8.550;2024-03-22T08:54:47;4.34;;;4.34;;
2710;SDS011;20721;47.402;8.550;2024-03-22T08:56:47;4.38;;;4.38;;
2710;SDS011;20721;47.402;8.550;2024-03-22T08:58:47;3.73;;;3.73;;
2710;SDS011;20721;47.402;8.550;2024-03-22T09:00:47;3.96;;;3.96;;
2710;SDS011;20721;47.402;8.550;2024-03-22T09:02:48;3.20;;;3.20;;
2710;SDS011;20721;47.402;8.550;2024-03-22T09:04:48;4.11;;;4.11;;
2710;SDS011;20721;47.402;8.550;2024-03-22T09:06:47;5.07;;;5.07;;
2710;SDS011;20721;47.402;8.550;2024-03-22T09:08:47;4.17;;;4.17;;
2710;SDS011;20721;47.402;8.550;2024-03-22T09:10:47;2.96;;;2.96;;
2710;SDS011;20721;47.402;8.550;2024-03-22T09:12:47;3.40;;;3.40;;
2710;SDS011;20721;47.402;8.550;2024-03-22T09:14:47;3.48;;;3.48;;
2710;SDS011;20721;47.402;8.550;2024-03-22T09:16:47;3.09;;;3.09;;
2710;SDS011;20721;47.402;8.550;2024-03-22T09:18:47;3.28;;;3.28;;
2710;SDS011;20721;47.402;8.550;2024-03-22T09:20:47;3.00;;;3.00;;
2710;SDS011;20721;47.402;8.550;2024-03-22T09:22:49;2.86;;;2.86;;
2710;SDS011;20721;47.402;8.550;2024-03-22T09:24:47;2.71;;;2.71;;
2710;SDS011;20721;47.402;8.550;2024-03-22T09:26:47;2.75;;;2.75;;
2710;SDS011;20721;47.402;8.550;2024-03-22T09:28:48;2.55;;;2.55;;
2710;SDS011;20721;47.402;8.550;2024-03-22T09:30:57;3.88;;;3.88;;
2710;SDS011;20721;47.402;8.550;2024-03-22T09:32:48;6.03;;;6.03;;
2710;SDS011;20721;47.402;8.550;2024-03-22T09:34:48;4.14;;;4.14;;
2710;SDS011;20721;47.402;8.550;2024-03-22T09:36:48;3.68;;;3.68;;
2710;SDS011;20721;47.402;8.550;2024-03-22T09:38:47;3.43;;;3.43;;
2710;SDS011;20721;47.402;8.550;2024-03-22T09:40:47;3.33;;;3.33;;
2710;SDS011;20721;47.402;8.550;2024-03-22T09:42:50;3.52;;;3.52;;
2710;SDS011;20721;47.402;8.550;2024-03-22T09:44:50;3.33;;;3.33;;
2710;SDS011;20721;47.402;8.550;2024-03-22T09:46:50;3.14;;;3.14;;
2710;SDS011;20721;47.402;8.550;2024-03-22T09:48:48;3.62;;;3.62;;
2710;SDS011;20721;47.402;8.550;2024-03-22T09:50:47;3.11;;;3.11;;
2710;SDS011;20721;47.402;8.550;2024-03-22T09:52:52;3.64;;;3.64;;
2710;SDS011;20721;47.402;8.550;2024-03-22T09:54:49;3.72;;;3.72;;
2710;SDS011;20721;47.402;8.550;2024-03-22T09:56:48;3.63;;;3.63;;
2710;SDS011;20721;47.402;8.550;2024-03-22T09:58:48;3.73;;;3.73;;
2710;SDS011;20721;47.402;8.550;2024-03-22T10:00:47;3.39;;;3.39;;
2710;SDS011;20721;47.402;8.550;2024-03-22T10:02:48;3.65;;;3.65;;
2710;SDS011;20721;47.402;8.550;2024-03-22T10:04:48;3.84;;;3.84;;
2710;SDS011;20721;47.402;8.550;2024-03-22T10:06:47;3.39;;;3.39;;
2710;SDS011;20721;47.402;8.550;2024-03-22T10:08:48;3.83;;;3.83;;
2710;SDS011;20721;47.402;8.550;2024-03-22T10:10:47;3.21;;;3.21;;
2710;SDS011;20721;47.402;8.550;2024-03-22T10:12:48;3.54;;;3.54;;
2710;SDS011;20721;47.402;8.550;2024-03-22T10:14:52;3.87;;;3.87;;
2710;SDS011;20721;47.402;8.550;2024-03-22T10:16:47;3.36;;;3.36;;
2710;SDS011;20721;47.402;8.550;2024-03-22T10:18:47;3.48;;;3.48;;
2710;SDS011;20721;47.402;8.550;2024-03-22T10:20:58;3.29;;;3.29;;
2710;SDS011;20721;47.402;8.550;2024-03-22T10:22:53;4.33;;;4.33;;
2710;SDS011;20721;47.402;8.550;2024-03-22T10:24:47;3.69;;;3.69;;
2710;SDS011;20721;47.402;8.550;2024-03-22T10:26:47;3.66;;;3.66;;
2710;SDS011;20721;47.402;8.550;2024-03-22T10:28:53;3.68;;;3.68;;
2710;SDS011;20721;47.402;8.550;2024-03-22T10:30:50;3.81;;;3.81;;
2710;SDS011;20721;47.402;8.550;2024-03-22T10:32:49;4.01;;;4.01;;
2710;SDS011;20721;47.402;8.550;2024-03-22T10:34:49;2.89;;;2.89;;
2710;SDS011;20721;47.402;8.550;2024-03-22T10:36:48;2.96;;;2.96;;
2710;SDS011;20721;47.402;8.550;2024-03-22T10:38:48;3.46;;;3.46;;
2710;SDS011;20721;47.402;8.550;2024-03-22T10:40:48;3.65;;;3.65;;
2710;SDS011;20721;47.402;8.550;2024-03-22T10:42:48;3.34;;;3.34;;
2710;SDS011;20721;47.402;8.550;2024-03-22T10:44:48;3.84;;;3.84;;
2710;SDS011;20721;47.402;8.550;2024-03-22T10:46:48;3.46;;;3.46;;
2710;SDS011;20721;47.402;8.550;2024-03-22T10:48:49;2.88;;;2.88;;
2710;SDS011;20721;47.402;8.550;2024-03-22T10:50:49;3.42;;;3.42;;
2710;SDS011;20721;47.402;8.550;2024-03-22T10:52:52;2.66;;;2.66;;
2710;SDS011;20721;47.402;8.550;2024-03-22T10:54:49;3.07;;;3.07;;
2710;SDS011;20721;47.402;8.550;2024-03-22T10:56:48;3.02;;;3.02;;
2710;SDS011;20721;47.402;8.550;2024-03-22T10:58:49;2.21;;;2.21;;
2710;SDS011;20721;47.402;8.550;2024-03-22T11:00:51;3.29;;;3.29;;
2710;SDS011;20721;47.402;8.550;2024-03-22T11:02:48;2.09;;;2.09;;
2710;SDS011;20721;47.402;8.550;2024-03-22T11:04:53;2.22;;;2.22;;
2710;SDS011;20721;47.402;8.550;2024-03-22T11:06:48;1.63;;;1.63;;
2710;SDS011;20721;47.402;8.550;2024-03-22T11:08:49;2.21;;;2.21;;
2710;SDS011;20721;47.402;8.550;2024-03-22T11:10:47;2.07;;;2.07;;
2710;SDS011;20721;47.402;8.550;2024-03-22T11:12:49;1.58;;;1.58;;
2710;SDS011;20721;47.402;8.550;2024-03-22T11:14:48;1.69;;;1.69;;
2710;SDS011;20721;47.402;8.550;2024-03-22T11:16:47;1.94;;;1.94;;
2710;SDS011;20721;47.402;8.550;2024-03-22T11:18:48;1.87;;;1.87;;
2710;SDS011;20721;47.402;8.550;2024-03-22T11:20:48;2.41;;;2.41;;
2710;SDS011;20721;47.402;8.550;2024-03-22T11:22:48;1.86;;;1.86;;
2710;SDS011;20721;47.402;8.550;2024-03-22T11:24:48;2.39;;;2.39;;
2710;SDS011;20721;47.402;8.550;2024-03-22T11:26:48;3.10;;;3.10;;
2710;SDS011;20721;47.402;8.550;2024-03-22T11:28:49;2.28;;;2.28;;
2710;SDS011;20721;47.402;8.550;2024-03-22T11:30:48;2.10;;;2.10;;
2710;SDS011;20721;47.402;8.550;2024-03-22T11:32:54;1.77;;;1.77;;
2710;SDS011;20721;47.402;8.550;2024-03-22T11:34:48;1.94;;;1.94;;
2710;SDS011;20721;47.402;8.550;2024-03-22T11:36:48;2.25;;;2.25;;
2710;SDS011;20721;47.402;8.550;2024-03-22T11:38:48;2.26;;;2.26;;
2710;SDS011;20721;47.402;8.550;2024-03-22T11:40:48;2.09;;;2.09;;
2710;SDS011;20721;47.402;8.550;2024-03-22T11:42:50;2.20;;;2.20;;
2710;SDS011;20721;47.402;8.550;2024-03-22T11:44:49;1.83;;;1.83;;
2710;SDS011;20721;47.402;8.550;2024-03-22T11:46:48;2.01;;;2.01;;
2710;SDS011;20721;47.402;8.550;2024-03-22T11:48:51;2.68;;;2.68;;
2710;SDS011;20721;47.402;8.550;2024-03-22T11:50:48;2.70;;;2.70;;
2710;SDS011;20721;47.402;8.550;2024-03-22T11:52:48;2.80;;;2.80;;
2710;SDS011;20721;47.402;8.550;2024-03-22T11:54:51;2.79;;;2.79;;
2710;SDS011;20721;47.402;8.550;2024-03-22T11:56:49;2.39;;;2.39;;
2710;SDS011;20721;47.402;8.550;2024-03-22T11:58:48;2.18;;;2.18;;
2710;SDS011;20721;47.402;8.550;2024-03-22T12:00:55;2.48;;;2.48;;
2710;SDS011;20721;47.402;8.550;2024-03-22T12:02:48;2.12;;;2.12;;
2710;SDS011;20721;47.402;8.550;2024-03-22T12:04:52;2.34;;;2.34;;
2710;SDS011;20721;47.402;8.550;2024-03-22T12:07:51;2.34;;;2.34;;
2710;SDS011;20721;47.402;8.550;2024-03-22T12:09:48;2.40;;;2.40;;
2710;SDS011;20721;47.402;8.550;2024-03-22T12:11:48;1.97;;;1.97;;
2710;SDS011;20721;47.402;8.550;2024-03-22T12:13:48;2.52;;;2.52;;
2710;SDS011;20721;47.402;8.550;2024-03-22T12:15:48;2.17;;;2.17;;
2710;SDS011;20721;47.402;8.550;2024-03-22T12:17:49;2.42;;;2.42;;
2710;SDS011;20721;47.402;8.550;2024-03-22T12:19:48;2.72;;;2.72;;
2710;SDS011;20721;47.402;8.550;2024-03-22T12:21:48;2.21;;;2.21;;
2710;SDS011;20721;47.402;8.550;2024-03-22T12:23:48;2.48;;;2.48;;
2710;SDS011;20721;47.402;8.550;2024-03-22T12:25:49;2.97;;;2.97;;
2710;SDS011;20721;47.402;8.550;2024-03-22T12:27:50;2.32;;;2.32;;
2710;SDS011;20721;47.402;8.550;2024-03-22T12:29:48;2.13;;;2.13;;
2710;SDS011;20721;47.402;8.550;2024-03-22T12:31:48;2.43;;;2.43;;
2710;SDS011;20721;47.402;8.550;2024-03-22T12:33:48;2.38;;;2.38;;
2710;SDS011;20721;47.402;8.550;2024-03-22T12:35:49;2.57;;;2.57;;
2710;SDS011;20721;47.402;8.550;2024-03-22T12:37:48;2.42;;;2.42;;
2710;SDS011;20721;47.402;8.550;2024-03-22T12:39:49;2.31;;;2.31;;
2710;SDS011;20721;47.402;8.550;2024-03-22T12:41:48;2.51;;;2.51;;
2710;SDS011;20721;47.402;8.550;2024-03-22T12:44:48;2.22;;;2.22;;
2710;SDS011;20721;47.402;8.550;2024-03-22T12:46:48;2.28;;;2.28;;
2710;SDS011;20721;47.402;8.550;2024-03-22T12:48:48;2.82;;;2.82;;
2710;SDS011;20721;47.402;8.550;2024-03-22T12:50:49;2.87;;;2.87;;
2710;SDS011;20721;47.402;8.550;2024-03-22T12:52:48;2.43;;;2.43;;
2710;SDS011;20721;47.402;8.550;2024-03-22T12:54:48;2.80;;;2.80;;
2710;SDS011;20721;47.402;8.550;2024-03-22T12:56:49;2.41;;;2.41;;
2710;SDS011;20721;47.402;8.550;2024-03-22T12:58:48;2.40;;;2.40;;
2710;SDS011;20721;47.402;8.550;2024-03-22T13:00:48;2.66;;;2.66;;
2710;SDS011;20721;47.402;8.550;2024-03-22T13:02:49;2.36;;;2.36;;